createdAt,value
2018-01-05T00:01:20.539Z,6.45
2018-01-05T00:03:47.105Z,6.41
2018-01-05T00:06:13.527Z,6.36
2018-01-05T00:08:39.955Z,6.34
2018-01-05T00:11:06.502Z,6.28
2018-01-05T00:13:32.907Z,6.29
2018-01-05T00:15:59.427Z,6.20
2018-01-05T00:18:25.869Z,6.07
2018-01-05T00:20:52.279Z,6.09
2018-01-05T00:23:18.668Z,6.05
2018-01-05T00:25:45.099Z,5.98
2018-01-05T00:28:11.611Z,5.95
2018-01-05T00:30:38.009Z,5.88
2018-01-05T00:33:04.411Z,5.82
2018-01-05T00:35:30.964Z,5.86
2018-01-05T00:37:57.422Z,5.83
2018-01-05T00:40:23.911Z,5.81
2018-01-05T00:42:50.358Z,5.78
2018-01-05T00:45:16.727Z,5.68
2018-01-05T00:47:43.123Z,5.69
2018-01-05T00:50:09.581Z,5.61
2018-01-05T00:52:35.956Z,5.52
2018-01-05T00:55:02.399Z,5.64
2018-01-05T00:57:28.828Z,5.68
2018-01-05T00:59:55.239Z,5.41
2018-01-05T01:02:21.644Z,5.54
2018-01-05T01:04:48.147Z,5.66
2018-01-05T01:07:14.573Z,5.52
2018-01-05T01:09:40.976Z,5.43
2018-01-05T01:12:07.437Z,5.54
2018-01-05T01:14:33.846Z,5.54
2018-01-05T01:17:00.324Z,5.51
2018-01-05T01:19:26.657Z,5.59
2018-01-05T01:21:53.063Z,5.60
2018-01-05T01:24:19.572Z,5.60
2018-01-05T01:26:46.000Z,5.53
2018-01-05T01:29:12.469Z,5.43
2018-01-05T01:31:38.912Z,5.42
2018-01-05T01:34:05.376Z,5.30
2018-01-05T01:36:31.856Z,5.20
2018-01-05T01:38:58.344Z,5.10
2018-01-05T01:41:24.775Z,4.93
2018-01-05T01:43:51.215Z,5.07
2018-01-05T01:46:17.695Z,5.09
2018-01-05T01:48:49.285Z,5.06
2018-01-05T01:51:15.717Z,5.10
2018-01-05T01:53:42.168Z,5.09
2018-01-05T01:56:08.736Z,5.14
2018-01-05T01:58:35.123Z,5.03
2018-01-05T02:01:01.576Z,5.02
2018-01-05T02:03:27.980Z,5.12
2018-01-05T02:05:54.418Z,5.09
2018-01-05T02:08:20.853Z,5.06
2018-01-05T02:10:47.292Z,5.10
2018-01-05T02:13:13.704Z,4.84
2018-01-05T02:15:40.101Z,4.85
2018-01-05T02:18:06.491Z,4.87
2018-01-05T02:20:32.933Z,4.87
2018-01-05T02:22:59.344Z,4.89
2018-01-05T02:25:25.768Z,4.75
2018-01-05T02:27:52.143Z,4.79
2018-01-05T02:30:18.597Z,4.73
2018-01-05T02:32:45.013Z,4.81
2018-01-05T02:35:11.435Z,4.78
2018-01-05T02:37:37.851Z,4.73
2018-01-05T02:40:04.279Z,4.64
2018-01-05T02:42:30.796Z,4.75
2018-01-05T02:44:57.301Z,4.64
2018-01-05T02:47:23.723Z,4.67
2018-01-05T02:49:50.136Z,4.53
2018-01-05T02:52:16.609Z,4.02
2018-01-05T02:54:43.007Z,4.27
2018-01-05T02:57:09.392Z,4.33
2018-01-05T02:59:35.795Z,4.41
2018-01-05T03:02:02.231Z,4.38
2018-01-05T03:04:28.691Z,4.34
2018-01-05T03:06:55.123Z,4.22
2018-01-05T03:09:21.588Z,4.13
2018-01-05T03:11:48.039Z,4.22
2018-01-05T03:14:14.499Z,4.34
2018-01-05T03:16:40.955Z,4.21
2018-01-05T03:19:07.347Z,4.30
2018-01-05T03:21:33.815Z,4.27
2018-01-05T03:24:00.236Z,4.14
2018-01-05T03:26:26.631Z,4.06
2018-01-05T03:28:53.055Z,4.25
2018-01-05T03:31:19.437Z,4.24
2018-01-05T03:33:45.963Z,4.25
2018-01-05T03:36:12.363Z,4.27
2018-01-05T03:38:38.761Z,4.09
2018-01-05T03:41:05.163Z,4.16
2018-01-05T03:43:31.654Z,4.21
2018-01-05T03:45:58.033Z,4.19
2018-01-05T03:48:24.432Z,3.87
2018-01-05T03:50:50.900Z,4.02
2018-01-05T03:53:17.320Z,3.69
2018-01-05T03:55:43.746Z,3.82
2018-01-05T03:58:10.204Z,3.83
2018-01-05T04:00:38.408Z,3.77
2018-01-05T04:03:04.884Z,3.76
2018-01-05T04:05:31.357Z,3.84
2018-01-05T04:07:57.718Z,3.94
2018-01-05T04:10:24.137Z,3.74
2018-01-05T04:12:50.604Z,3.73
2018-01-05T04:15:17.059Z,3.52
2018-01-05T04:17:43.535Z,3.67
2018-01-05T04:20:09.916Z,3.42
2018-01-05T04:22:36.532Z,3.31
2018-01-05T04:25:03.076Z,3.21
2018-01-05T04:27:29.568Z,3.35
2018-01-05T04:29:56.038Z,3.35
2018-01-05T04:32:22.435Z,3.33
2018-01-05T04:34:48.844Z,3.33
2018-01-05T04:37:15.359Z,3.25
2018-01-05T04:39:41.937Z,3.23
2018-01-05T04:42:08.454Z,3.22
2018-01-05T04:44:34.852Z,3.03
2018-01-05T04:47:01.196Z,2.98
2018-01-05T04:49:27.700Z,3.01
2018-01-05T04:51:54.035Z,2.87
2018-01-05T04:54:20.431Z,3.02
2018-01-05T04:56:46.816Z,3.00
2018-01-05T04:59:13.160Z,2.94
2018-01-05T05:01:39.710Z,3.00
2018-01-05T05:04:06.163Z,3.09
2018-01-05T05:06:32.527Z,3.17
2018-01-05T05:08:58.901Z,3.28
2018-01-05T05:11:25.219Z,3.20
2018-01-05T05:13:51.571Z,3.06
2018-01-05T05:16:17.876Z,3.10
2018-01-05T05:18:44.347Z,3.12
2018-01-05T05:21:10.728Z,2.94
2018-01-05T05:23:37.059Z,3.14
2018-01-05T05:26:03.483Z,3.10
2018-01-05T05:28:29.866Z,2.96
2018-01-05T05:30:56.204Z,2.91
2018-01-05T05:33:22.603Z,2.68
2018-01-05T05:35:49.040Z,2.86
2018-01-05T05:38:15.326Z,2.90
2018-01-05T05:40:41.755Z,2.92
2018-01-05T05:43:08.188Z,2.84
2018-01-05T05:45:34.553Z,2.80
2018-01-05T05:48:00.987Z,2.74
2018-01-05T05:50:27.448Z,2.74
2018-01-05T05:52:53.789Z,2.87
2018-01-05T05:55:20.333Z,2.81
2018-01-05T05:57:46.664Z,2.86
2018-01-05T06:00:13.091Z,2.74
2018-01-05T06:02:39.580Z,2.75
2018-01-05T06:05:06.022Z,2.55
2018-01-05T06:07:32.416Z,2.48
2018-01-05T06:09:58.870Z,2.56
2018-01-05T06:12:25.188Z,2.68
2018-01-05T06:14:51.575Z,2.60
2018-01-05T06:17:17.966Z,2.65
2018-01-05T06:19:44.330Z,2.67
2018-01-05T06:22:10.703Z,2.53
2018-01-05T06:24:37.123Z,2.57
2018-01-05T06:27:03.523Z,2.44
2018-01-05T06:29:29.879Z,2.48
2018-01-05T06:31:56.276Z,2.51
2018-01-05T06:34:22.690Z,2.38
2018-01-05T06:36:49.038Z,2.38
2018-01-05T06:39:15.384Z,2.44
2018-01-05T06:41:41.888Z,2.55
2018-01-05T06:44:08.252Z,2.58
2018-01-05T06:46:34.608Z,2.73
2018-01-05T06:49:00.963Z,2.54
2018-01-05T06:51:27.272Z,2.47
2018-01-05T06:53:53.800Z,2.60
2018-01-05T06:56:20.252Z,2.55
2018-01-05T06:58:46.616Z,2.51
2018-01-05T07:01:12.987Z,2.65
2018-01-05T07:03:39.480Z,2.65
2018-01-05T07:06:05.880Z,2.88
2018-01-05T07:08:32.240Z,2.92
2018-01-05T07:10:58.629Z,2.93
2018-01-05T07:13:24.984Z,2.89
2018-01-05T07:15:51.328Z,2.90
2018-01-05T07:18:17.748Z,2.95
2018-01-05T07:20:44.077Z,3.08
2018-01-05T07:23:10.640Z,3.24
2018-01-05T07:25:37.004Z,3.42
2018-01-05T07:28:03.366Z,3.36
2018-01-05T07:30:29.750Z,3.65
2018-01-05T07:32:56.183Z,3.57
2018-01-05T07:35:22.600Z,3.96
2018-01-05T07:37:49.202Z,3.92
2018-01-05T07:40:15.615Z,3.95
2018-01-05T07:42:41.999Z,4.11
2018-01-05T07:45:08.416Z,4.29
2018-01-05T07:47:34.820Z,4.37
2018-01-05T07:50:01.204Z,4.47
2018-01-05T07:52:27.565Z,4.61
2018-01-05T07:54:53.948Z,4.75
2018-01-05T07:57:20.296Z,4.87
2018-01-05T07:59:46.680Z,4.98
2018-01-05T08:02:13.069Z,5.12
2018-01-05T08:04:39.408Z,5.25
2018-01-05T08:07:05.783Z,5.39
2018-01-05T08:09:32.160Z,5.56
2018-01-05T08:11:59.087Z,5.65
2018-01-05T08:14:25.759Z,5.84
2018-01-05T08:16:52.125Z,6.01
2018-01-05T08:19:18.507Z,6.16
2018-01-05T08:21:44.868Z,6.27
2018-01-05T08:24:11.284Z,6.34
2018-01-05T08:26:37.639Z,6.43
2018-01-05T08:29:04.044Z,6.50
2018-01-05T08:31:30.415Z,6.65
2018-01-05T08:33:56.716Z,6.77
2018-01-05T08:36:23.115Z,6.88
2018-01-05T08:38:49.507Z,6.98
2018-01-05T08:41:15.863Z,7.01
2018-01-05T08:43:42.482Z,7.04
2018-01-05T08:46:08.797Z,7.00
2018-01-05T08:48:35.661Z,6.93
2018-01-05T08:51:02.211Z,7.02
2018-01-05T08:53:28.606Z,7.17
2018-01-05T08:55:54.935Z,7.11
2018-01-05T08:58:21.257Z,7.03
2018-01-05T09:00:47.646Z,7.07
2018-01-05T09:03:13.976Z,6.98
2018-01-05T09:05:40.429Z,6.91
2018-01-05T09:08:07.002Z,6.87
2018-01-05T09:10:33.339Z,7.02
2018-01-05T09:12:59.862Z,7.29
2018-01-05T09:15:26.304Z,7.31
2018-01-05T09:17:52.616Z,7.29
2018-01-05T09:20:18.988Z,7.41
2018-01-05T09:22:45.367Z,7.32
2018-01-05T09:25:11.715Z,7.29
2018-01-05T09:27:38.194Z,7.33
2018-01-05T09:30:04.577Z,7.46
2018-01-05T09:32:30.930Z,7.44
2018-01-05T09:34:57.336Z,7.64
2018-01-05T09:37:23.692Z,7.74
2018-01-05T09:39:50.143Z,7.77
2018-01-05T09:42:16.624Z,8.01
2018-01-05T09:44:43.029Z,8.06
2018-01-05T09:47:09.417Z,8.25
2018-01-05T09:49:35.850Z,8.24
2018-01-05T09:52:02.224Z,7.98
2018-01-05T09:54:28.551Z,8.03
2018-01-05T09:56:54.898Z,7.94
2018-01-05T09:59:21.252Z,8.10
2018-01-05T10:01:47.613Z,8.09
2018-01-05T10:04:14.066Z,8.03
2018-01-05T10:06:40.572Z,8.18
2018-01-05T10:09:06.956Z,8.37
2018-01-05T10:11:33.379Z,8.55
2018-01-05T10:13:59.820Z,8.64
2018-01-05T10:16:26.316Z,8.65
2018-01-05T10:18:53.277Z,8.80
2018-01-05T10:21:19.644Z,8.97
2018-01-05T10:23:45.933Z,9.01
2018-01-05T10:26:12.400Z,9.23
2018-01-05T10:28:38.826Z,9.22
2018-01-05T10:31:05.140Z,9.19
2018-01-05T10:33:31.552Z,9.09
2018-01-05T10:35:57.908Z,8.99
2018-01-05T10:38:24.609Z,8.78
2018-01-05T10:40:51.144Z,8.94
2018-01-05T10:43:17.440Z,8.98
2018-01-05T10:45:43.859Z,9.09
2018-01-05T10:48:10.388Z,9.36
2018-01-05T10:50:36.732Z,9.26
2018-01-05T10:53:03.125Z,9.36
2018-01-05T10:55:29.481Z,9.41
2018-01-05T10:57:55.846Z,9.49
2018-01-05T11:00:22.263Z,9.68
2018-01-05T11:02:48.659Z,9.90
2018-01-05T11:05:15.032Z,10.06
2018-01-05T11:07:41.452Z,10.01
2018-01-05T11:10:07.840Z,10.01
2018-01-05T11:12:34.189Z,10.14
2018-01-05T11:15:00.520Z,10.22
2018-01-05T11:17:26.892Z,10.36
2018-01-05T11:19:53.272Z,10.34
2018-01-05T11:22:19.650Z,10.50
2018-01-05T11:24:45.983Z,10.27
2018-01-05T11:27:12.383Z,9.98
2018-01-05T11:29:38.771Z,10.15
2018-01-05T11:32:05.153Z,10.15
2018-01-05T11:34:31.470Z,10.32
2018-01-05T11:36:57.806Z,10.45
2018-01-05T11:39:24.271Z,10.51
2018-01-05T11:41:50.652Z,10.56
2018-01-05T11:44:16.975Z,10.60
2018-01-05T11:46:43.369Z,10.47
2018-01-05T11:49:09.692Z,10.46
2018-01-05T11:51:36.032Z,10.49
2018-01-05T11:54:02.431Z,10.60
2018-01-05T11:56:28.823Z,10.64
2018-01-05T11:58:55.183Z,10.64
2018-01-05T12:01:21.652Z,10.76
2018-01-05T12:03:48.138Z,10.76
2018-01-05T12:06:14.500Z,10.79
2018-01-05T12:08:40.977Z,10.84
2018-01-05T12:11:07.368Z,10.66
2018-01-05T12:13:33.796Z,10.66
2018-01-05T12:16:00.280Z,10.68
2018-01-05T12:18:26.647Z,10.68
2018-01-05T12:20:53.100Z,10.74
2018-01-05T12:23:19.566Z,10.78
2018-01-05T12:25:45.964Z,10.66
2018-01-05T12:28:12.371Z,10.59
2018-01-05T12:30:38.808Z,10.62
2018-01-05T12:33:05.233Z,10.66
2018-01-05T12:35:31.699Z,10.50
2018-01-05T12:37:58.244Z,10.50
2018-01-05T12:40:24.660Z,10.58
2018-01-05T12:42:51.027Z,10.61
2018-01-05T12:45:17.531Z,10.65
2018-01-05T12:47:44.061Z,10.65
2018-01-05T12:50:10.533Z,10.74
2018-01-05T12:52:36.987Z,10.76
2018-01-05T12:55:03.543Z,10.75
2018-01-05T12:57:30.030Z,10.81
2018-01-05T12:59:56.488Z,10.93
2018-01-05T13:02:22.897Z,11.00
2018-01-05T13:04:49.434Z,10.88
2018-01-05T13:07:15.926Z,10.93
2018-01-05T13:09:42.388Z,11.06
2018-01-05T13:12:08.831Z,11.01
2018-01-05T13:14:35.420Z,11.10
2018-01-05T13:17:01.972Z,11.09
2018-01-05T13:19:28.468Z,11.03
2018-01-05T13:21:55.073Z,10.99
2018-01-05T13:24:21.501Z,10.99
2018-01-05T13:26:48.059Z,10.93
2018-01-05T13:29:14.564Z,10.90
2018-01-05T13:31:41.190Z,10.88
2018-01-05T13:34:07.615Z,10.85
2018-01-05T13:36:34.090Z,10.77
2018-01-05T13:39:00.567Z,10.84
2018-01-05T13:41:26.980Z,10.81
2018-01-05T13:43:53.436Z,10.54
2018-01-05T13:46:19.820Z,10.52
2018-01-05T13:48:46.227Z,10.45
2018-01-05T13:51:12.676Z,10.51
2018-01-05T13:53:39.092Z,10.64
2018-01-05T13:56:05.663Z,10.74
2018-01-05T13:58:32.126Z,10.88
2018-01-05T14:00:58.611Z,10.97
2018-01-05T14:03:25.034Z,10.89
2018-01-05T14:05:51.477Z,10.88
2018-01-05T14:08:18.122Z,10.88
2018-01-05T14:10:44.535Z,10.83
2018-01-05T14:13:10.996Z,10.80
2018-01-05T14:15:37.406Z,10.69
2018-01-05T14:18:03.820Z,10.69
2018-01-05T14:20:31.434Z,10.69
2018-01-05T14:22:57.856Z,10.68
2018-01-05T14:25:24.546Z,10.63
2018-01-05T14:27:51.033Z,10.50
2018-01-05T14:30:17.464Z,10.43
2018-01-05T14:32:44.054Z,10.33
2018-01-05T14:35:10.545Z,10.32
2018-01-05T14:37:37.057Z,10.28
2018-01-05T14:40:03.800Z,10.24
2018-01-05T14:42:30.220Z,10.20
2018-01-05T14:44:56.652Z,10.20
2018-01-05T14:47:23.111Z,10.17
2018-01-05T14:49:49.528Z,10.18
2018-01-05T14:52:16.017Z,10.21
2018-01-05T14:54:43.380Z,10.19
2018-01-05T14:57:09.868Z,10.14
2018-01-05T14:59:36.407Z,10.16
2018-01-05T15:02:03.007Z,10.18
2018-01-05T15:04:29.557Z,10.17
2018-01-05T15:06:56.045Z,10.08
2018-01-05T15:09:22.432Z,10.05
2018-01-05T15:11:49.024Z,9.97
2018-01-05T15:14:15.438Z,10.00
2018-01-05T15:16:41.789Z,10.01
2018-01-05T15:19:08.213Z,9.98
2018-01-05T15:21:34.638Z,9.97
2018-01-05T15:24:01.155Z,9.93
2018-01-05T15:26:27.684Z,9.93
2018-01-05T15:28:54.175Z,9.91
2018-01-05T15:31:20.828Z,9.85
2018-01-05T15:33:47.368Z,9.83
2018-01-05T15:36:13.782Z,9.85
2018-01-05T15:38:40.231Z,9.85
2018-01-05T15:41:06.760Z,9.84
2018-01-05T15:43:33.177Z,9.84
2018-01-05T15:45:59.771Z,9.79
2018-01-05T15:48:26.260Z,9.76
2018-01-05T15:50:52.675Z,9.70
2018-01-05T15:53:19.232Z,9.73
2018-01-05T15:55:45.712Z,9.71
2018-01-05T15:58:12.145Z,9.74
2018-01-05T16:00:38.568Z,9.74
2018-01-05T16:03:05.115Z,9.74
2018-01-05T16:05:31.536Z,9.64
2018-01-05T16:07:57.927Z,9.70
2018-01-05T16:10:24.388Z,9.69
2018-01-05T16:12:50.949Z,9.73
2018-01-05T16:15:17.356Z,9.72
2018-01-05T16:17:43.844Z,9.73
2018-01-05T16:20:10.296Z,9.70
2018-01-05T16:22:36.724Z,9.68
2018-01-05T16:25:03.187Z,9.68
2018-01-05T16:27:29.630Z,9.69
2018-01-05T16:29:56.018Z,9.65
2018-01-05T16:32:22.488Z,9.66
2018-01-05T16:34:48.936Z,9.62
2018-01-05T16:37:15.360Z,9.65
2018-01-05T16:39:41.783Z,9.65
2018-01-05T16:42:08.164Z,9.64
2018-01-05T16:44:34.591Z,9.62
2018-01-05T16:47:01.064Z,9.61
2018-01-05T16:49:27.472Z,9.59
2018-01-05T16:51:57.048Z,9.58
2018-01-05T16:54:23.540Z,9.59
2018-01-05T16:56:49.988Z,9.57
2018-01-05T16:59:16.387Z,9.54
2018-01-05T17:01:42.888Z,9.54
2018-01-05T17:04:09.345Z,9.52
2018-01-05T17:06:35.761Z,9.52
2018-01-05T17:09:02.316Z,9.49
2018-01-05T17:11:28.776Z,9.46
2018-01-05T17:13:55.228Z,9.45
2018-01-05T17:16:21.647Z,9.41
2018-01-05T17:18:48.057Z,9.34
2018-01-05T17:21:14.467Z,9.31
2018-01-05T17:23:40.908Z,9.32
2018-01-05T17:26:07.300Z,9.27
2018-01-05T17:28:33.709Z,9.24
2018-01-05T17:31:00.149Z,9.20
2018-01-05T17:33:26.494Z,9.16
2018-01-05T17:35:52.912Z,9.12
2018-01-05T17:38:19.426Z,9.09
2018-01-05T17:40:45.860Z,9.05
2018-01-05T17:43:12.375Z,9.02
2018-01-05T17:45:38.828Z,8.98
2018-01-05T17:48:05.384Z,8.94
2018-01-05T17:50:31.828Z,8.91
2018-01-05T17:52:58.309Z,8.88
2018-01-05T17:55:24.716Z,8.85
2018-01-05T17:57:51.136Z,8.82
2018-01-05T18:00:17.909Z,8.69
2018-01-05T18:02:44.667Z,8.68
2018-01-05T18:05:11.489Z,8.68
2018-01-05T18:07:38.091Z,8.63
2018-01-05T18:10:04.612Z,8.61
2018-01-05T18:12:31.293Z,8.60
2018-01-05T18:14:57.756Z,8.58
2018-01-05T18:17:24.572Z,8.55
2018-01-05T18:19:51.084Z,8.44
2018-01-05T18:22:18.087Z,8.43
2018-01-05T18:24:44.543Z,8.42
2018-01-05T18:27:11.162Z,8.29
2018-01-05T18:29:38.017Z,8.32
2018-01-05T18:32:04.714Z,8.33
2018-01-05T18:34:31.353Z,8.33
2018-01-05T18:36:58.181Z,8.32
2018-01-05T18:39:24.673Z,8.31
2018-01-05T18:41:51.356Z,8.23
2018-01-05T18:44:18.552Z,8.21
2018-01-05T18:46:45.296Z,8.16
2018-01-05T18:49:12.068Z,8.12
2018-01-05T18:51:38.834Z,8.09
2018-01-05T18:54:05.264Z,8.00
2018-01-05T18:56:31.776Z,7.97
2018-01-05T18:58:58.219Z,7.93
2018-01-05T19:01:24.691Z,7.97
2018-01-05T19:03:51.138Z,7.88
2018-01-05T19:06:17.596Z,7.87
2018-01-05T19:08:44.456Z,7.76
2018-01-05T19:11:10.916Z,7.83
2018-01-05T19:13:37.376Z,7.80
2018-01-05T19:16:03.755Z,7.82
2018-01-05T19:18:30.174Z,7.70
2018-01-05T19:20:56.607Z,7.80
2018-01-05T19:23:23.061Z,7.74
2018-01-05T19:25:49.429Z,7.78
2018-01-05T19:28:15.903Z,7.64
2018-01-05T19:30:42.302Z,7.66
2018-01-05T19:33:08.747Z,7.66
2018-01-05T19:35:35.176Z,7.62
2018-01-05T19:38:01.660Z,7.62
2018-01-05T19:40:28.109Z,7.56
2018-01-05T19:42:54.530Z,7.28
2018-01-05T19:45:20.957Z,7.39
2018-01-05T19:47:47.452Z,7.35
2018-01-05T19:50:15.196Z,7.28
2018-01-05T19:52:41.648Z,7.36
2018-01-05T19:55:08.045Z,7.31
2018-01-05T19:57:34.540Z,7.32
2018-01-05T20:00:00.908Z,7.36
2018-01-05T20:02:27.283Z,7.36
2018-01-05T20:04:53.807Z,7.31
2018-01-05T20:07:20.173Z,7.35
2018-01-05T20:09:46.703Z,7.29
2018-01-05T20:12:13.254Z,7.21
2018-01-05T20:14:39.643Z,7.22
2018-01-05T20:17:06.096Z,7.23
2018-01-05T20:19:32.536Z,7.29
2018-01-05T20:22:00.245Z,7.28
2018-01-05T20:24:26.854Z,7.20
2018-01-05T20:26:53.292Z,7.24
2018-01-05T20:29:20.006Z,7.29
2018-01-05T20:31:46.535Z,7.32
2018-01-05T20:34:13.866Z,7.33
2018-01-05T20:36:40.769Z,7.29
2018-01-05T20:39:07.348Z,7.35
2018-01-05T20:41:33.835Z,7.35
2018-01-05T20:44:00.218Z,7.41
2018-01-05T20:46:27.532Z,7.45
2018-01-05T20:48:54.327Z,7.53
2018-01-05T20:51:20.745Z,7.54
2018-01-05T20:53:47.279Z,7.57
2018-01-05T20:56:13.716Z,7.60
2018-01-05T20:58:40.120Z,7.57
2018-01-05T21:01:06.612Z,7.58
2018-01-05T21:03:33.139Z,7.56
2018-01-05T21:05:59.811Z,7.51
2018-01-05T21:08:26.263Z,7.52
2018-01-05T21:10:52.695Z,7.50
2018-01-05T21:13:19.208Z,7.50
2018-01-05T21:15:45.588Z,7.49
2018-01-05T21:18:12.065Z,7.53
2018-01-05T21:20:38.511Z,7.56
2018-01-05T21:23:04.977Z,7.49
2018-01-05T21:25:31.432Z,7.36
2018-01-05T21:27:58.653Z,7.32
2018-01-05T21:30:25.216Z,7.39
2018-01-05T21:32:53.490Z,7.21
2018-01-05T21:35:20.232Z,7.25
2018-01-05T21:37:46.720Z,7.31
2018-01-05T21:40:13.132Z,7.28
2018-01-05T21:42:39.635Z,7.12
2018-01-05T21:45:05.989Z,7.18
2018-01-05T21:47:32.414Z,7.12
2018-01-05T21:49:58.761Z,7.01
2018-01-05T21:52:25.233Z,7.03
2018-01-05T21:54:51.632Z,6.99
2018-01-05T21:57:18.028Z,6.85
2018-01-05T21:59:44.464Z,6.70
2018-01-05T22:02:11.200Z,6.75
2018-01-05T22:04:37.567Z,6.76
2018-01-05T22:07:04.017Z,6.33
2018-01-05T22:09:30.484Z,6.63
2018-01-05T22:11:57.128Z,6.61
2018-01-05T22:14:23.508Z,6.69
2018-01-05T22:16:49.935Z,6.75
2018-01-05T22:19:16.336Z,6.82
2018-01-05T22:21:43.647Z,6.80
2018-01-05T22:24:10.071Z,6.84
2018-01-05T22:26:36.439Z,6.81
2018-01-05T22:29:02.799Z,6.79
2018-01-05T22:31:29.236Z,6.68
2018-01-05T22:33:55.687Z,6.48
2018-01-05T22:36:22.096Z,6.48
2018-01-05T22:38:48.592Z,6.50
2018-01-05T22:41:15.027Z,6.52
2018-01-05T22:43:41.419Z,6.52
2018-01-05T22:46:07.835Z,6.47
2018-01-05T22:48:34.279Z,6.39
2018-01-05T22:51:00.660Z,6.40
2018-01-05T22:53:27.096Z,6.31
2018-01-05T22:55:53.556Z,6.29
2018-01-05T22:58:19.967Z,6.43
2018-01-05T23:00:46.436Z,6.50
2018-01-05T23:03:12.827Z,6.32
2018-01-05T23:05:39.269Z,6.41
2018-01-05T23:08:05.728Z,6.40
2018-01-05T23:10:32.168Z,6.27
2018-01-05T23:12:58.596Z,6.34
2018-01-05T23:15:25.040Z,6.30
2018-01-05T23:17:51.432Z,6.38
2018-01-05T23:20:17.853Z,6.26
2018-01-05T23:22:44.256Z,6.28
2018-01-05T23:25:10.652Z,6.17
2018-01-05T23:27:37.043Z,6.06
2018-01-05T23:30:03.553Z,6.09
2018-01-05T23:32:30.006Z,6.10
2018-01-05T23:34:56.566Z,6.08
2018-01-05T23:37:22.951Z,6.07
2018-01-05T23:39:49.379Z,6.01
2018-01-05T23:42:15.723Z,6.03
2018-01-05T23:44:42.160Z,6.03
2018-01-05T23:47:08.616Z,6.13
2018-01-05T23:49:34.965Z,6.21
2018-01-05T23:52:01.434Z,6.17
2018-01-05T23:54:27.827Z,6.22
2018-01-05T23:56:54.281Z,5.98
2018-01-05T23:59:20.672Z,5.97
